createdAt,value
2022-12-18T00:01:41.863Z,56.2
2022-12-18T00:06:44.444Z,56.2
2022-12-18T00:11:44.484Z,56.4
2022-12-18T00:16:44.769Z,56.3
2022-12-18T00:21:44.875Z,56.1
2022-12-18T00:26:44.918Z,56.2
2022-12-18T00:31:45.023Z,56.1
2022-12-18T00:36:45.385Z,56
2022-12-18T00:41:45.429Z,56
2022-12-18T00:46:45.305Z,55.8
2022-12-18T00:51:45.703Z,55.9
2022-12-18T00:56:49.163Z,55.8
2022-12-18T01:01:48.883Z,55.8
2022-12-18T01:06:48.394Z,55.9
2022-12-18T01:11:48.579Z,55.9
2022-12-18T01:16:48.561Z,55.8
2022-12-18T01:21:48.644Z,55.8
2022-12-18T01:26:48.655Z,55.9
2022-12-18T01:31:48.837Z,55.7
2022-12-18T01:36:49.153Z,55.5
2022-12-18T01:41:49.413Z,55.6
2022-12-18T01:46:49.714Z,55.4
2022-12-18T01:51:49.818Z,55.4
2022-12-18T01:56:49.303Z,55.6
2022-12-18T02:01:49.538Z,55.4
2022-12-18T02:06:49.712Z,55.4
2022-12-18T02:11:51.798Z,55.5
2022-12-18T02:16:51.755Z,55.4
2022-12-18T02:21:51.593Z,55.5
2022-12-18T02:26:54.680Z,55.5
2022-12-18T02:31:54.477Z,55.5
2022-12-18T02:36:54.781Z,55.4
2022-12-18T02:41:54.663Z,55.5
2022-12-18T02:46:54.798Z,55.4
2022-12-18T02:51:55.129Z,55.4
2022-12-18T02:56:55.273Z,55.5
2022-12-18T03:01:55.431Z,55.6
2022-12-18T03:06:55.573Z,55.4
2022-12-18T03:11:55.786Z,55.5
2022-12-18T03:16:56.087Z,55.5
2022-12-18T03:21:56.266Z,55.5
2022-12-18T03:26:56.348Z,55.6
2022-12-18T03:31:56.426Z,55.4
2022-12-18T03:36:56.675Z,55.5
2022-12-18T03:41:56.728Z,55.5
2022-12-18T03:46:59.835Z,55.5
2022-12-18T03:51:59.191Z,55.6
2022-12-18T03:56:59.138Z,55.5
2022-12-18T04:01:59.398Z,55.4
2022-12-18T04:06:59.677Z,55.4
2022-12-18T04:11:59.659Z,55.1
2022-12-18T04:16:59.684Z,55.1
2022-12-18T04:21:59.767Z,55
2022-12-18T04:27:00.130Z,55
2022-12-18T04:32:00.327Z,54.9
2022-12-18T04:37:00.488Z,55
2022-12-18T04:42:00.309Z,54.8
2022-12-18T04:47:00.647Z,54.6
2022-12-18T04:52:00.662Z,54.5
2022-12-18T04:57:00.978Z,54.4
2022-12-18T05:02:01.288Z,54.4
2022-12-18T05:07:01.584Z,54.3
2022-12-18T05:12:01.454Z,54.1
2022-12-18T05:17:01.575Z,53.8
2022-12-18T05:22:01.768Z,54
2022-12-18T05:27:02.286Z,54
2022-12-18T05:32:02.271Z,54.1
2022-12-18T05:37:02.463Z,54.1
2022-12-18T05:42:02.563Z,54.4
2022-12-18T05:47:03.010Z,54.4
2022-12-18T05:52:02.753Z,54.3
2022-12-18T05:57:03.037Z,54.2
2022-12-18T06:02:03.213Z,54.2
2022-12-18T06:07:03.444Z,54.1
2022-12-18T06:12:03.449Z,53.9
2022-12-18T06:17:03.598Z,53.9
2022-12-18T06:22:03.842Z,53.9
2022-12-18T06:27:04.025Z,53.8
2022-12-18T06:32:04.104Z,53.8
2022-12-18T06:37:04.528Z,53.5
2022-12-18T06:42:07.468Z,53.4
2022-12-18T06:47:07.134Z,53.5
2022-12-18T06:52:11.115Z,53.3
2022-12-18T06:57:10.674Z,53.2
2022-12-18T07:02:10.636Z,53.4
2022-12-18T07:07:10.589Z,53.2
2022-12-18T07:12:10.790Z,53.1
2022-12-18T07:17:11.093Z,53.1
2022-12-18T07:22:11.165Z,53.2
2022-12-18T07:27:11.320Z,52.9
2022-12-18T07:32:11.439Z,52.9
2022-12-18T07:37:11.689Z,53
2022-12-18T07:42:14.620Z,52.9
2022-12-18T07:47:14.431Z,52.8
2022-12-18T07:52:14.918Z,52.7
2022-12-18T07:57:33.954Z,52.7
2022-12-18T08:02:15.262Z,52.7
2022-12-18T08:07:15.372Z,52.4
2022-12-18T08:12:15.819Z,52.3
2022-12-18T08:17:16.095Z,52.3
2022-12-18T08:22:16.340Z,52.2
2022-12-18T08:27:31.718Z,52
2022-12-18T08:32:19.449Z,51.9
2022-12-18T08:37:21.585Z,52
2022-12-18T08:42:21.253Z,52
2022-12-18T08:47:21.467Z,51.9
2022-12-18T08:52:21.295Z,52.1
2022-12-18T08:57:24.407Z,51.8
2022-12-18T09:02:25.520Z,51.8
2022-12-18T09:07:25.101Z,51.8
2022-12-18T09:12:25.354Z,51.8
2022-12-18T09:17:25.419Z,51.9
2022-12-18T09:22:25.722Z,51.9
2022-12-18T09:27:25.751Z,51.9
2022-12-18T09:32:26.823Z,51.8
2022-12-18T09:37:27.194Z,51.8
2022-12-18T09:42:27.255Z,51.8
2022-12-18T09:47:31.760Z,51.7
2022-12-18T09:52:31.022Z,51.8
2022-12-18T09:57:31.178Z,51.7
2022-12-18T10:02:31.230Z,51.6
2022-12-18T10:07:31.000Z,51.6
2022-12-18T10:12:31.135Z,51.5
2022-12-18T10:17:33.192Z,51.4
2022-12-18T10:22:32.993Z,51.4
2022-12-18T10:27:33.042Z,51.3
2022-12-18T10:32:33.507Z,51
2022-12-18T10:37:33.730Z,51.2
2022-12-18T10:42:34.019Z,51.1
2022-12-18T10:47:37.059Z,51
2022-12-18T10:52:38.647Z,50.9
2022-12-18T10:57:36.812Z,50.7
2022-12-18T11:02:40.927Z,49.8
2022-12-18T11:07:40.796Z,49.3
2022-12-18T11:12:41.125Z,48.9
2022-12-18T11:17:41.719Z,48.7
2022-12-18T11:22:41.988Z,48.5
2022-12-18T11:27:42.051Z,48.3
2022-12-18T11:32:42.238Z,48.3
2022-12-18T11:37:42.426Z,48.1
2022-12-18T11:42:42.749Z,47.8
2022-12-18T11:47:42.889Z,47.7
2022-12-18T11:52:42.940Z,47.5
2022-12-18T11:57:43.487Z,47.5
2022-12-18T12:02:43.874Z,47.6
2022-12-18T12:07:43.902Z,47.5
2022-12-18T12:12:48.283Z,47.5
2022-12-18T12:17:44.411Z,47.5
2022-12-18T12:22:44.875Z,47.3
2022-12-18T12:27:45.040Z,47.3
2022-12-18T12:32:48.024Z,47.3
2022-12-18T12:37:48.111Z,47.2
2022-12-18T12:42:50.716Z,47
2022-12-18T12:47:50.290Z,47.1
2022-12-18T12:52:53.453Z,47
2022-12-18T12:57:53.103Z,47
2022-12-18T13:02:56.157Z,46.9
2022-12-18T13:07:55.958Z,47.1
2022-12-18T13:12:56.423Z,46.9
2022-12-18T13:17:56.606Z,47
2022-12-18T13:22:56.936Z,47.1
2022-12-18T13:27:57.154Z,47.1
2022-12-18T13:32:57.507Z,46.9
2022-12-18T13:37:57.735Z,46.8
2022-12-18T13:42:58.056Z,46.9
2022-12-18T13:47:58.452Z,46.9
2022-12-18T13:52:58.700Z,46.8
2022-12-18T13:57:58.625Z,46.8
2022-12-18T14:02:58.930Z,46.8
2022-12-18T14:07:58.961Z,46.9
2022-12-18T14:13:03.258Z,46.9
2022-12-18T14:18:01.762Z,47
2022-12-18T14:23:01.861Z,46.9
2022-12-18T14:28:01.767Z,47
2022-12-18T14:33:02.246Z,47
2022-12-18T14:38:02.432Z,47
2022-12-18T14:43:05.015Z,47.2
2022-12-18T14:48:04.967Z,47
2022-12-18T14:53:05.224Z,47.1
2022-12-18T14:58:08.080Z,47.1
2022-12-18T15:03:08.197Z,47.1
2022-12-18T15:08:10.772Z,47.2
2022-12-18T15:13:10.332Z,47.1
2022-12-18T15:18:10.705Z,47.3
2022-12-18T15:23:10.718Z,47.2
2022-12-18T15:28:11.070Z,47.2
2022-12-18T15:33:14.014Z,47.3
2022-12-18T15:38:16.320Z,47.1
2022-12-18T15:43:15.966Z,47.1
2022-12-18T15:48:16.243Z,47
2022-12-18T15:53:16.520Z,47
2022-12-18T15:58:16.766Z,46.9
2022-12-18T16:03:16.989Z,46.8
2022-12-18T16:08:16.985Z,46.8
2022-12-18T16:13:19.964Z,46.8
2022-12-18T16:18:19.570Z,46.7
2022-12-18T16:23:19.746Z,46.7
2022-12-18T16:28:20.170Z,46.7
2022-12-18T16:33:20.480Z,46.6
2022-12-18T16:38:20.549Z,46.6
2022-12-18T16:43:23.367Z,46.5
2022-12-18T16:48:23.530Z,46.4
2022-12-18T16:53:23.674Z,46.2
2022-12-18T16:58:26.686Z,46.3
2022-12-18T17:03:26.547Z,46.3
2022-12-18T17:08:26.669Z,46.3
2022-12-18T17:13:27.002Z,46.3
2022-12-18T17:18:26.969Z,46.4
2022-12-18T17:23:27.135Z,46.2
2022-12-18T17:28:31.472Z,46.1
2022-12-18T17:33:31.278Z,46.1
2022-12-18T17:38:34.260Z,45.9
2022-12-18T17:43:36.855Z,45.8
2022-12-18T17:48:38.468Z,45.8
2022-12-18T17:53:38.798Z,45.6
2022-12-18T17:58:38.969Z,45.6
2022-12-18T18:03:38.504Z,46.2
2022-12-18T18:08:37.838Z,46.7
2022-12-18T18:13:40.885Z,47.1
2022-12-18T18:18:37.427Z,47.6
2022-12-18T18:23:37.442Z,48
2022-12-18T18:28:38.227Z,48.3
2022-12-18T18:33:41.243Z,48.3
2022-12-18T18:38:44.195Z,48.8
2022-12-18T18:43:40.900Z,49
2022-12-18T18:48:40.704Z,49.2
2022-12-18T18:53:41.095Z,49.2
2022-12-18T18:58:41.025Z,49.4
2022-12-18T19:03:41.460Z,49.2
2022-12-18T19:08:41.406Z,49.1
2022-12-18T19:13:41.670Z,49.3
2022-12-18T19:18:41.754Z,49.3
2022-12-18T19:23:43.476Z,49.3
2022-12-18T19:28:43.670Z,49.3
2022-12-18T19:33:44.058Z,49.2
2022-12-18T19:38:43.877Z,49.3
2022-12-18T19:43:46.434Z,49.3
2022-12-18T19:48:46.262Z,49.5
2022-12-18T19:53:51.428Z,49.4
2022-12-18T19:58:48.828Z,49.3
2022-12-18T20:03:51.791Z,49.3
2022-12-18T20:08:49.131Z,49.5
2022-12-18T20:13:52.008Z,49.2
2022-12-18T20:18:52.344Z,49.3
2022-12-18T20:23:52.213Z,49.1
2022-12-18T20:28:52.659Z,49.2
2022-12-18T20:33:53.258Z,49.1
2022-12-18T20:38:52.925Z,49.1
2022-12-18T20:43:53.323Z,49.3
2022-12-18T20:48:53.666Z,49.3
2022-12-18T20:53:51.939Z,49.1
2022-12-18T20:58:53.978Z,49.2
2022-12-18T21:03:52.637Z,49.2
2022-12-18T21:08:52.924Z,49
2022-12-18T21:13:53.039Z,49.1
2022-12-18T21:18:53.390Z,49
2022-12-18T21:23:53.486Z,49.1
2022-12-18T21:28:52.557Z,48.9
2022-12-18T21:33:54.094Z,48.9
2022-12-18T21:38:53.102Z,49.1
2022-12-18T21:43:53.210Z,48.8
2022-12-18T21:48:53.326Z,48.7
2022-12-18T21:53:56.197Z,48.9
2022-12-18T21:58:58.848Z,48.8
2022-12-18T22:04:01.352Z,48.9
2022-12-18T22:09:01.022Z,48.9
2022-12-18T22:14:03.923Z,48.7
2022-12-18T22:19:05.501Z,48.8
2022-12-18T22:24:05.357Z,48.8
2022-12-18T22:29:11.534Z,48.8
2022-12-18T22:34:05.925Z,48.9
2022-12-18T22:39:06.240Z,48.8
2022-12-18T22:44:06.576Z,48.8
2022-12-18T22:49:06.777Z,48.9
2022-12-18T22:54:06.740Z,48.9
2022-12-18T22:59:06.869Z,48.9
2022-12-18T23:04:07.167Z,48.8
2022-12-18T23:09:07.366Z,48.9
2022-12-18T23:14:07.938Z,49.1
2022-12-18T23:19:08.196Z,48.9
2022-12-18T23:24:08.080Z,48.9
2022-12-18T23:29:08.381Z,48.9
2022-12-18T23:34:08.747Z,48.9
2022-12-18T23:39:11.743Z,49
2022-12-18T23:44:11.334Z,48.9
2022-12-18T23:49:11.430Z,49
2022-12-18T23:54:14.398Z,48.9
2022-12-18T23:59:14.096Z,49
